Moatsville, West Virginia
Current Conditions -  °F | °C
As of 5:53 PM on Saturday 22 Nov 2014 (Local Time) from KCKB Reporting Station
Overcast Overcast  
Wind Chill: 51°   Ceiling: 9000
Heat Index: 51°   Visibility: 10mi
Dew Point: 28°   Wind: 3mph
Humidity: 41%   Direction: 160°SSE
Pressure: 30.17"   Gusts: NA
Location:  39.21°N, 79.93°W
Report Text: KCKB 222253Z 16003KT 10SM SCT075 BKN090 OVC110 11/M02 A3017 RMK AO2 SLP224 T01061022
Loading
Personal Weather Stations






























Interactive Weather Map New forecast layout! Learn more

10-Day Weather Forecast

Advertisements
Track Severe Weather on mobile